Time;durP1;ratioP1;P1;durP2;ratioP2;P2;SDS_P1;SDS_P2;PMS_P1;PMS_P2;Temp;Humidity;BMP_temperature;BMP_pressure;BME280_temperature;BME280_humidity;BME280_pressure;Samples;Min_cycle;Max_cycle;Signal;HPM_P1;HPM_P2
2023/03/15 00:00:57;;;;;;;1.70;0.80;;;15.40;64.00;;;;;;10440348;28;20112;-56
2023/03/15 00:06:00;;;;;;;1.30;1.00;;;15.40;64.00;;;;;;10440192;28;20407;-55
2023/03/15 00:11:01;;;;;;;1.73;0.60;;;15.40;64.00;;;;;;10441464;28;20435;-56
2023/03/15 00:16:02;;;;;;;2.65;0.95;;;15.40;64.10;;;;;;10440431;28;20112;-57
2023/03/15 00:21:03;;;;;;;0.50;0.40;;;15.40;64.00;;;;;;10440400;28;20033;-57
2023/03/15 00:26:04;;;;;;;1.40;0.43;;;15.30;64.00;;;;;;10441723;28;20025;-56
2023/03/15 00:31:18;;;;;;;2.42;0.32;;;15.30;64.10;;;;;;10440436;28;20654;-56
2023/03/15 00:36:24;;;;;;;0.63;0.30;;;15.30;64.00;;;;;;10441316;28;20025;-56
2023/03/15 00:41:24;;;;;;;1.13;0.40;;;15.30;64.10;;;;;;10443877;28;20045;-56
2023/03/15 00:46:25;;;;;;;3.63;0.70;;;15.20;63.90;;;;;;10433857;28;20025;-56
2023/03/15 00:51:26;;;;;;;0.80;0.35;;;15.20;64.00;;;;;;10430570;28;20021;-57
2023/03/15 00:56:28;;;;;;;2.03;0.45;;;15.20;64.00;;;;;;10446854;28;20072;-56
2023/03/15 01:01:29;;;;;;;0.75;0.40;;;15.20;64.00;;;;;;10446222;28;20035;-57
2023/03/15 01:06:30;;;;;;;1.23;0.50;;;15.20;63.70;;;;;;10445589;28;20494;-56
2023/03/15 01:11:31;;;;;;;1.08;0.45;;;15.20;64.10;;;;;;10446156;28;20447;-55
2023/03/15 01:16:31;;;;;;;1.83;0.32;;;15.20;64.00;;;;;;10429783;28;20028;-56
2023/03/15 01:21:32;;;;;;;0.95;0.50;;;15.10;64.00;;;;;;10445502;28;20135;-56
2023/03/15 01:26:33;;;;;;;1.15;0.40;;;15.10;63.90;;;;;;10446318;28;20551;-55
2023/03/15 01:31:33;;;;;;;1.55;0.43;;;15.10;64.00;;;;;;10445494;28;20048;-55
2023/03/15 01:36:34;;;;;;;0.73;0.40;;;15.10;63.90;;;;;;10446503;28;20032;-56
2023/03/15 01:41:36;;;;;;;2.42;0.60;;;15.10;64.00;;;;;;10445153;28;20152;-57
2023/03/15 01:46:36;;;;;;;1.02;0.80;;;15.10;64.00;;;;;;10438348;28;20087;-56
2023/03/15 01:51:57;;;;;;;0.57;0.20;;;15.00;63.90;;;;;;10443850;28;20131;-56
2023/03/15 01:57:14;;;;;;;1.05;0.43;;;15.00;63.70;;;;;;10442516;28;20120;-56
2023/03/15 02:02:15;;;;;;;0.40;0.20;;;15.00;63.40;;;;;;10427942;28;20094;-57
2023/03/15 02:07:18;;;;;;;0.57;0.43;;;15.00;63.40;;;;;;10426560;28;20037;-56
2023/03/15 02:12:19;;;;;;;0.20;0.20;;;15.00;63.30;;;;;;10444102;28;20124;-57
2023/03/15 02:17:30;;;;;;;0.80;0.30;;;15.00;63.60;;;;;;10444822;28;20147;-56
2023/03/15 02:22:54;;;;;;;0.70;0.30;;;15.00;63.70;;;;;;10444365;28;20036;-56
2023/03/15 02:27:56;;;;;;;1.05;0.60;;;15.00;63.70;;;;;;10443211;28;20025;-56
2023/03/15 02:32:59;;;;;;;0.50;0.30;;;14.90;63.90;;;;;;10443296;28;20028;-57
2023/03/15 02:38:01;;;;;;;0.50;0.28;;;14.90;63.80;;;;;;10442986;28;20241;-56
2023/03/15 02:43:10;;;;;;;0.52;0.22;;;14.90;63.80;;;;;;10443203;28;20020;-57
2023/03/15 02:48:12;;;;;;;0.88;0.38;;;14.90;63.80;;;;;;10442681;28;20428;-57
2023/03/15 02:53:13;;;;;;;0.90;0.28;;;14.90;63.80;;;;;;10442404;28;20681;-57
2023/03/15 02:58:14;;;;;;;0.68;0.35;;;14.80;63.80;;;;;;10425161;28;20013;-56
2023/03/15 03:03:14;;;;;;;0.82;0.40;;;14.80;63.70;;;;;;10441185;28;20133;-56
2023/03/15 03:08:15;;;;;;;0.52;0.30;;;14.80;63.80;;;;;;10442471;28;20048;-56
2023/03/15 03:13:16;;;;;;;0.75;0.30;;;14.80;63.80;;;;;;10441836;28;20408;-56
2023/03/15 03:18:17;;;;;;;0.52;0.30;;;14.80;63.90;;;;;;10442152;28;20454;-56
2023/03/15 03:23:17;;;;;;;1.08;0.30;;;14.80;63.80;;;;;;10440978;28;20109;-57
2023/03/15 03:28:23;;;;;;;1.30;0.45;;;14.80;63.90;;;;;;10441878;28;20096;-56
2023/03/15 03:33:24;;;;;;;0.43;0.30;;;14.80;64.00;;;;;;10440940;28;20485;-56
2023/03/15 03:38:24;;;;;;;0.35;0.30;;;14.80;63.40;;;;;;10440635;28;20439;-57
2023/03/15 03:43:25;;;;;;;1.33;0.40;;;14.80;63.30;;;;;;10440843;28;20075;-56
2023/03/15 03:48:26;;;;;;;0.47;0.30;;;14.80;62.90;;;;;;10431016;28;20045;-56
2023/03/15 03:53:26;;;;;;;0.88;0.40;;;14.80;63.00;;;;;;10440882;28;20021;-56
2023/03/15 03:58:27;;;;;;;0.60;0.40;;;14.80;63.40;;;;;;10441761;28;20112;-56
2023/03/15 04:03:27;;;;;;;0.88;0.30;;;14.70;63.30;;;;;;10440330;28;20022;-56
2023/03/15 04:08:28;;;;;;;0.85;0.30;;;14.70;62.40;;;;;;10441639;28;20145;-55
2023/03/15 04:13:30;;;;;;;0.68;0.40;;;14.90;62.20;;;;;;10441840;28;20108;-56
2023/03/15 04:18:30;;;;;;;0.80;0.32;;;15.20;61.30;;;;;;10448509;28;20080;-56
2023/03/15 04:23:33;;;;;;;0.45;0.30;;;15.40;60.50;;;;;;10431501;28;20349;-56
2023/03/15 04:28:36;;;;;;;0.88;0.40;;;15.60;59.80;;;;;;10449196;28;20099;-57
2023/03/15 04:33:37;;;;;;;0.50;0.30;;;15.80;59.90;;;;;;10447697;28;20014;-56
2023/03/15 04:38:38;;;;;;;0.77;0.57;;;16.00;58.90;;;;;;10447703;28;20029;-56
2023/03/15 04:43:39;;;;;;;0.17;0.17;;;16.10;58.40;;;;;;10447433;28;20116;-57
2023/03/15 04:48:40;;;;;;;0.40;0.30;;;16.30;57.90;;;;;;10435758;28;20025;-56
2023/03/15 04:53:41;;;;;;;0.90;0.30;;;16.40;57.70;;;;;;10429963;28;20035;-56
2023/03/15 04:58:41;;;;;;;0.32;0.20;;;16.50;57.40;;;;;;10447660;28;20408;-57
2023/03/15 05:03:42;;;;;;;0.98;0.50;;;16.50;57.30;;;;;;10446200;28;20064;-57
2023/03/15 05:08:44;;;;;;;0.90;0.22;;;16.60;57.10;;;;;;10443085;28;20132;-56
2023/03/15 05:13:45;;;;;;;0.50;0.30;;;16.60;57.00;;;;;;10446224;28;20029;-57
2023/03/15 05:18:45;;;;;;;1.02;0.20;;;16.60;57.20;;;;;;10447213;28;20041;-55
2023/03/15 05:23:46;;;;;;;0.85;0.40;;;16.50;57.40;;;;;;10446030;28;20097;-55
2023/03/15 05:28:47;;;;;;;0.30;0.17;;;16.50;57.50;;;;;;10445685;28;20104;-55
2023/03/15 05:33:47;;;;;;;0.63;0.32;;;16.40;57.50;;;;;;10446904;28;20419;-56
2023/03/15 05:38:48;;;;;;;1.15;0.47;;;16.30;57.70;;;;;;10445400;28;20117;-55
2023/03/15 05:43:50;;;;;;;0.50;0.25;;;16.30;57.80;;;;;;10444535;28;20114;-56
2023/03/15 05:48:52;;;;;;;0.70;0.30;;;16.20;57.80;;;;;;10451050;28;20112;-57
2023/03/15 05:53:53;;;;;;;0.50;0.20;;;16.20;57.80;;;;;;10446356;28;20033;-56
2023/03/15 05:58:54;;;;;;;0.85;0.38;;;16.20;57.80;;;;;;10446567;28;20029;-56
2023/03/15 06:03:55;;;;;;;1.10;0.40;;;16.20;57.80;;;;;;10447115;28;20092;-57
2023/03/15 06:08:55;;;;;;;0.95;0.30;;;16.20;57.80;;;;;;10444937;28;20135;-58
2023/03/15 06:13:56;;;;;;;2.45;1.20;;;16.20;58.20;;;;;;10428762;28;20046;-55
2023/03/15 06:18:57;;;;;;;7.18;1.10;;;16.30;58.50;;;;;;10446408;28;20036;-57
2023/03/15 06:23:57;;;;;;;4.05;0.75;;;16.40;59.00;;;;;;10447187;28;20104;-57
2023/03/15 06:28:58;;;;;;;3.05;0.70;;;16.50;58.90;;;;;;10446946;28;20104;-57
2023/03/15 06:33:59;;;;;;;6.57;0.90;;;16.50;59.60;;;;;;10444881;28;20048;-56
2023/03/15 06:39:01;;;;;;;5.38;1.10;;;16.40;59.70;;;;;;10445589;28;20131;-55
2023/03/15 06:44:02;;;;;;;6.57;1.30;;;16.60;59.80;;;;;;10442988;28;20573;-56
2023/03/15 06:49:02;;;;;;;9.20;1.52;;;16.80;59.30;;;;;;10449261;28;20028;-58
2023/03/15 06:54:03;;;;;;;7.55;1.30;;;16.70;59.70;;;;;;10444986;28;20478;-58
2023/03/15 06:59:04;;;;;;;8.93;1.40;;;16.60;60.20;;;;;;10439163;28;20103;-57
2023/03/15 07:04:05;;;;;;;7.28;2.25;;;16.40;60.50;;;;;;10436783;28;20029;-57
2023/03/15 07:09:06;;;;;;;10.45;2.38;;;16.20;60.70;;;;;;10442237;28;20053;-56
2023/03/15 07:14:07;;;;;;;20.85;4.18;;;16.10;61.20;;;;;;10443363;28;20025;-58
2023/03/15 07:19:08;;;;;;;16.27;3.30;;;16.10;61.20;;;;;;10422009;28;20135;-58
2023/03/15 07:24:08;;;;;;;10.48;2.55;;;15.90;62.20;;;;;;10445591;28;20098;-58
2023/03/15 07:29:09;;;;;;;13.13;2.17;;;16.00;61.20;;;;;;10441532;28;20044;-58
2023/03/15 07:34:10;;;;;;;14.35;2.42;;;15.90;61.20;;;;;;10442356;28;20372;-59
2023/03/15 07:39:10;;;;;;;11.27;2.10;;;15.80;61.30;;;;;;10436940;28;20116;-58
2023/03/15 07:44:11;;;;;;;9.80;2.00;;;15.80;61.40;;;;;;10432748;28;20521;-58
2023/03/15 07:49:12;;;;;;;9.57;2.10;;;15.80;61.30;;;;;;10438884;28;20108;-57
2023/03/15 07:54:12;;;;;;;9.10;2.05;;;15.70;61.30;;;;;;10450353;28;20102;-57
2023/03/15 07:59:14;;;;;;;14.98;2.85;;;15.70;61.10;;;;;;10432631;28;20031;-57
2023/03/15 08:04:15;;;;;;;10.38;1.77;;;15.80;61.00;;;;;;10445942;28;20024;-57
2023/03/15 08:09:15;;;;;;;16.98;2.15;;;15.80;61.40;;;;;;10449300;28;20076;-56
2023/03/15 08:14:16;;;;;;;13.32;2.72;;;15.80;61.40;;;;;;10450482;28;20048;-57
2023/03/15 08:19:17;;;;;;;7.80;2.53;;;15.80;62.20;;;;;;10449720;28;20116;-56
2023/03/15 08:24:17;;;;;;;11.45;2.63;;;15.70;62.70;;;;;;10449760;28;20100;-56
2023/03/15 08:29:18;;;;;;;19.27;2.78;;;15.70;62.30;;;;;;10450894;28;20539;-58
2023/03/15 08:34:20;;;;;;;14.35;2.40;;;15.70;63.50;;;;;;10449668;28;20057;-56
2023/03/15 08:39:22;;;;;;;10.32;2.17;;;15.70;63.00;;;;;;10446778;28;20040;-57
2023/03/15 08:44:23;;;;;;;8.30;1.73;;;15.60;62.80;;;;;;10445217;28;20097;-57
2023/03/15 08:49:24;;;;;;;5.72;1.95;;;15.60;62.90;;;;;;10448235;28;20418;-57
2023/03/15 08:54:26;;;;;;;8.25;1.67;;;15.60;63.00;;;;;;10447298;28;20439;-57
2023/03/15 08:59:27;;;;;;;6.47;1.35;;;15.50;63.10;;;;;;10445204;28;20127;-57
2023/03/15 09:04:27;;;;;;;7.95;1.83;;;15.50;63.20;;;;;;10446306;28;20200;-56
2023/03/15 09:09:28;;;;;;;8.52;1.88;;;15.50;63.10;;;;;;10445197;28;20601;-57
2023/03/15 09:14:28;;;;;;;3.58;1.60;;;15.50;63.00;;;;;;10448920;28;20092;-57
2023/03/15 09:19:31;;;;;;;4.72;1.45;;;15.50;62.90;;;;;;10448106;28;20075;-57
2023/03/15 09:24:31;;;;;;;5.80;1.20;;;15.50;62.80;;;;;;10447582;28;20060;-56
2023/03/15 09:29:33;;;;;;;3.22;0.85;;;15.50;62.80;;;;;;10446677;28;20513;-57
2023/03/15 09:34:35;;;;;;;3.70;0.95;;;15.50;62.80;;;;;;10446802;28;20021;-58
2023/03/15 09:39:35;;;;;;;4.13;0.95;;;15.60;62.90;;;;;;10447479;28;20033;-57
2023/03/15 09:44:49;;;;;;;4.32;0.98;;;15.50;62.90;;;;;;10439835;28;20120;-57
2023/03/15 09:50:24;;;;;;;4.30;0.70;;;15.50;62.90;;;;;;10457551;28;20021;-56
2023/03/15 09:55:27;;;;;;;5.18;0.85;;;15.50;62.90;;;;;;10446425;28;20078;-56
2023/03/15 10:00:37;;;;;;;4.80;0.88;;;15.60;63.00;;;;;;10447023;28;20052;-57
2023/03/15 10:05:46;;;;;;;3.03;0.77;;;15.60;62.90;;;;;;10445897;28;20021;-57
2023/03/15 10:10:58;;;;;;;4.63;0.90;;;15.60;62.90;;;;;;10428914;28;20048;-57
2023/03/15 10:16:38;;;;;;;3.55;0.77;;;15.60;62.90;;;;;;10444979;28;20484;-56
2023/03/15 10:22:03;;;;;;;2.25;0.65;;;15.60;62.90;;;;;;10436292;28;20083;-58
2023/03/15 10:27:56;;;;;;;4.35;0.88;;;15.70;62.90;;;;;;10446439;28;20052;-55
2023/03/15 10:33:14;;;;;;;3.28;0.65;;;15.70;62.80;;;;;;10441397;28;20021;-57
2023/03/15 10:38:22;;;;;;;2.92;0.60;;;15.70;62.80;;;;;;10444993;28;20075;-56
2023/03/15 10:43:31;;;;;;;3.25;0.73;;;15.70;62.80;;;;;;10444973;28;20037;-57
2023/03/15 10:48:59;;;;;;;1.83;0.70;;;15.70;62.90;;;;;;10427855;28;20036;-57
2023/03/15 10:54:19;;;;;;;1.70;0.63;;;15.70;62.80;;;;;;10445355;28;20036;-57
2023/03/15 10:59:26;;;;;;;1.98;0.70;;;15.70;62.80;;;;;;10443115;28;20041;-57
2023/03/15 11:04:29;;;;;;;2.80;0.60;;;15.70;62.80;;;;;;10426289;28;20553;-58
2023/03/15 11:10:02;;;;;;;1.58;0.45;;;15.70;62.80;;;;;;10442599;28;20135;-57
2023/03/15 11:15:14;;;;;;;7.38;0.98;;;15.70;62.80;;;;;;10443846;28;20021;-57
2023/03/15 11:20:37;;;;;;;1.88;0.50;;;15.70;62.70;;;;;;10437024;28;20049;-58
2023/03/15 11:25:38;;;;;;;1.55;0.50;;;15.80;62.60;;;;;;10439180;28;20068;-57
2023/03/15 11:30:40;;;;;;;1.73;0.82;;;15.80;62.70;;;;;;10442271;28;20025;-58
2023/03/15 11:35:47;;;;;;;3.45;0.70;;;15.80;62.70;;;;;;10445135;28;20142;-59
2023/03/15 11:40:53;;;;;;;4.88;0.77;;;15.90;62.30;;;;;;10441695;28;20071;-58
2023/03/15 11:46:13;;;;;;;4.85;0.80;;;15.90;62.00;;;;;;10442756;28;20048;-57
2023/03/15 11:51:14;;;;;;;5.22;1.10;;;16.00;61.90;;;;;;10445292;28;20025;-57
2023/03/15 11:57:01;;;;;;;4.78;1.38;;;16.00;62.00;;;;;;10444821;28;20647;-56
2023/03/15 12:02:25;;;;;;;5.72;0.95;;;16.00;62.10;;;;;;10434038;28;20037;-57
2023/03/15 12:07:37;;;;;;;7.22;1.17;;;16.00;62.20;;;;;;10459604;28;20045;-56
2023/03/15 12:12:43;;;;;;;7.43;1.55;;;16.00;62.40;;;;;;10445341;28;20029;-57
2023/03/15 12:17:48;;;;;;;3.38;0.60;;;16.10;62.20;;;;;;10444513;28;20032;-57
2023/03/15 12:22:53;;;;;;;6.45;1.15;;;16.10;62.40;;;;;;10447330;28;20025;-57
2023/03/15 12:27:56;;;;;;;5.72;1.50;;;16.10;62.50;;;;;;10444271;28;20056;-57
2023/03/15 12:32:57;;;;;;;8.40;1.40;;;16.10;63.00;;;;;;10425731;28;20465;-57
2023/03/15 12:38:00;;;;;;;7.68;1.23;;;16.20;62.70;;;;;;10441794;28;20027;-54
2023/03/15 12:43:01;;;;;;;8.05;1.40;;;16.30;62.60;;;;;;10452171;28;20025;-58
2023/03/15 12:48:05;;;;;;;7.63;0.77;;;16.20;62.80;;;;;;10439664;28;20025;-57
2023/03/15 12:53:37;;;;;;;6.57;0.95;;;16.20;63.00;;;;;;10451390;28;20052;-57
2023/03/15 12:58:39;;;;;;;5.03;0.85;;;16.20;62.90;;;;;;10443576;28;20021;-57
2023/03/15 13:03:41;;;;;;;8.70;0.98;;;16.20;62.90;;;;;;10444745;28;20237;-56
2023/03/15 13:09:20;;;;;;;5.05;1.30;;;16.20;62.90;;;;;;10432981;28;20468;-57
2023/03/15 13:14:44;;;;;;;6.00;1.40;;;16.20;62.80;;;;;;10441957;28;20527;-57
2023/03/15 13:19:54;;;;;;;1.85;0.70;;;16.20;62.80;;;;;;10431730;28;20300;-56
2023/03/15 13:25:25;;;;;;;3.70;0.68;;;16.10;62.60;;;;;;10446602;28;20025;-56
2023/03/15 13:30:36;;;;;;;6.20;1.38;;;16.20;62.30;;;;;;10445921;28;20418;-57
2023/03/15 13:35:55;;;;;;;5.85;1.05;;;16.10;62.10;;;;;;10446796;28;20021;-57
2023/03/15 13:41:00;;;;;;;8.07;1.83;;;16.20;62.00;;;;;;10446432;28;20033;-58
2023/03/15 13:46:01;;;;;;;4.38;1.33;;;16.20;62.10;;;;;;10442293;28;20048;-57
2023/03/15 13:51:13;;;;;;;4.38;0.90;;;16.10;61.90;;;;;;10452587;28;20027;-58
2023/03/15 13:56:27;;;;;;;7.15;1.02;;;16.10;61.70;;;;;;10457730;28;20048;-58
2023/03/15 14:01:29;;;;;;;2.85;0.93;;;16.10;61.60;;;;;;10422349;28;20040;-58
2023/03/15 14:06:30;;;;;;;5.07;0.85;;;16.10;61.30;;;;;;10442253;28;20014;-57
2023/03/15 14:11:36;;;;;;;4.65;1.30;;;16.10;61.00;;;;;;10440793;28;20059;-57
2023/03/15 14:16:44;;;;;;;3.50;0.80;;;16.10;61.00;;;;;;10443529;28;20485;-58
2023/03/15 14:21:54;;;;;;;3.05;0.95;;;16.10;61.00;;;;;;10447104;28;20037;-57
2023/03/15 14:26:59;;;;;;;5.50;1.00;;;16.10;61.00;;;;;;10430877;28;20032;-57
2023/03/15 14:32:05;;;;;;;5.53;1.10;;;16.00;61.20;;;;;;10439854;28;20017;-57
2023/03/15 14:37:41;;;;;;;3.15;0.80;;;16.00;60.90;;;;;;10438634;28;20558;-58
2023/03/15 14:42:43;;;;;;;4.55;1.05;;;16.00;60.50;;;;;;10431290;28;20029;-57
2023/03/15 14:47:51;;;;;;;5.65;1.33;;;16.10;60.70;;;;;;10422388;28;20449;-58
2023/03/15 14:52:53;;;;;;;8.02;1.77;;;16.00;60.80;;;;;;10427471;28;20508;-58
2023/03/15 14:57:53;;;;;;;6.75;1.70;;;16.00;60.70;;;;;;10439618;28;20108;-58
2023/03/15 15:02:56;;;;;;;5.82;1.58;;;16.00;60.60;;;;;;10424582;28;20033;-57
2023/03/15 15:08:11;;;;;;;7.40;2.00;;;15.90;60.30;;;;;;10459420;28;20033;-57
2023/03/15 15:13:25;;;;;;;7.95;1.10;;;15.80;60.20;;;;;;10441890;28;20029;-57
2023/03/15 15:18:29;;;;;;;6.82;2.08;;;15.80;60.30;;;;;;10438655;28;20432;-58
2023/03/15 15:23:34;;;;;;;4.88;1.05;;;15.80;60.40;;;;;;10440124;28;20060;-58
2023/03/15 15:28:35;;;;;;;4.93;1.30;;;15.80;60.60;;;;;;10458283;28;20099;-58
2023/03/15 15:33:36;;;;;;;5.55;1.10;;;15.80;60.70;;;;;;10444355;28;20043;-57
2023/03/15 15:38:39;;;;;;;6.30;1.45;;;15.80;60.80;;;;;;10442572;28;20325;-58
2023/03/15 15:43:41;;;;;;;5.43;1.25;;;15.80;60.80;;;;;;10442206;28;20013;-58
2023/03/15 15:48:41;;;;;;;5.38;1.40;;;15.80;61.50;;;;;;10441688;28;20448;-57
2023/03/15 15:53:42;;;;;;;3.78;1.55;;;15.70;61.40;;;;;;10442149;28;20104;-58
2023/03/15 15:58:44;;;;;;;4.70;0.90;;;15.70;60.90;;;;;;10441597;28;20443;-57
2023/03/15 16:03:45;;;;;;;17.17;2.38;;;15.70;61.00;;;;;;10416489;28;20025;-58
2023/03/15 16:08:48;;;;;;;17.38;1.65;;;15.60;61.10;;;;;;10416042;28;20049;-58
2023/03/15 16:13:52;;;;;;;16.80;3.10;;;15.70;61.20;;;;;;10445258;28;20025;-57
2023/03/15 16:18:53;;;;;;;14.38;1.50;;;15.70;61.50;;;;;;10442992;28;20019;-58
2023/03/15 16:24:18;;;;;;;8.38;1.38;;;15.70;62.20;;;;;;10444148;28;20021;-57
2023/03/15 16:29:22;;;;;;;11.65;2.85;;;15.70;61.70;;;;;;10445938;28;20094;-58
2023/03/15 16:34:24;;;;;;;12.15;2.33;;;15.70;62.40;;;;;;10459538;28;20067;-58
2023/03/15 16:39:24;;;;;;;5.60;1.75;;;15.60;61.80;;;;;;10455379;28;20026;-60
2023/03/15 16:44:25;;;;;;;5.88;1.58;;;15.60;61.80;;;;;;10458204;28;20806;-58
2023/03/15 16:49:26;;;;;;;5.38;1.60;;;16.00;63.50;;;;;;10434863;28;20529;-59
2023/03/15 16:54:29;;;;;;;8.35;1.80;;;16.30;63.40;;;;;;10455087;28;20033;-60
2023/03/15 16:59:30;;;;;;;11.98;1.50;;;16.80;63.20;;;;;;10450232;28;20514;-59
2023/03/15 17:04:31;;;;;;;7.70;1.75;;;16.70;63.80;;;;;;10450425;28;20029;-59
2023/03/15 17:09:31;;;;;;;7.05;1.75;;;16.50;63.40;;;;;;10451285;28;20103;-59
2023/03/15 17:14:34;;;;;;;9.75;1.67;;;16.40;64.40;;;;;;10466978;28;20025;-60
2023/03/15 17:19:34;;;;;;;7.97;1.52;;;16.20;64.90;;;;;;10438676;28;20029;-60
2023/03/15 17:24:35;;;;;;;9.02;1.90;;;16.20;65.00;;;;;;10461516;28;20408;-59
2023/03/15 17:29:36;;;;;;;12.38;2.10;;;16.10;64.20;;;;;;10449560;28;20104;-59
2023/03/15 17:34:37;;;;;;;13.10;2.20;;;16.10;64.60;;;;;;10448396;28;20504;-58
2023/03/15 17:39:37;;;;;;;11.52;2.45;;;15.90;63.70;;;;;;10446804;28;20115;-58
2023/03/15 17:44:38;;;;;;;18.42;2.63;;;16.00;64.70;;;;;;10432225;28;20109;-56
2023/03/15 17:49:39;;;;;;;22.80;3.88;;;16.00;64.00;;;;;;10449279;28;20025;-57
2023/03/15 17:54:40;;;;;;;13.00;2.80;;;15.90;63.80;;;;;;10447071;28;20040;-57
2023/03/15 17:59:41;;;;;;;17.88;3.58;;;15.80;63.90;;;;;;10431640;28;20033;-58
2023/03/15 18:04:41;;;;;;;13.02;2.53;;;15.70;63.90;;;;;;10449380;28;20108;-57
2023/03/15 18:09:42;;;;;;;8.55;2.13;;;15.70;63.90;;;;;;10445148;28;20056;-57
2023/03/15 18:14:43;;;;;;;10.35;2.08;;;15.60;63.80;;;;;;10448107;28;20029;-57
2023/03/15 18:19:43;;;;;;;8.15;1.63;;;15.60;63.90;;;;;;10448287;28;20133;-57
2023/03/15 18:24:44;;;;;;;4.32;1.80;;;15.50;63.90;;;;;;10449167;28;20066;-57
2023/03/15 18:29:45;;;;;;;9.15;2.70;;;15.50;63.80;;;;;;10438016;28;20059;-57
2023/03/15 18:34:46;;;;;;;9.70;2.53;;;15.40;63.80;;;;;;10448249;28;20052;-58
2023/03/15 18:39:46;;;;;;;8.18;2.03;;;15.40;63.70;;;;;;10448497;28;20083;-58
2023/03/15 18:44:47;;;;;;;11.38;2.03;;;15.40;64.10;;;;;;10447680;28;20535;-58
2023/03/15 18:49:48;;;;;;;6.07;1.65;;;15.40;64.30;;;;;;10447155;28;20017;-58
2023/03/15 18:54:50;;;;;;;6.60;1.83;;;15.40;63.90;;;;;;10447686;28;20636;-58
2023/03/15 18:59:51;;;;;;;9.15;2.40;;;15.40;63.80;;;;;;10446208;28;20033;-58
2023/03/15 19:04:55;;;;;;;7.15;2.05;;;15.40;63.70;;;;;;10444609;28;20498;-58
2023/03/15 19:09:56;;;;;;;12.77;2.83;;;15.30;63.50;;;;;;10433721;28;20041;-58
2023/03/15 19:14:56;;;;;;;11.00;2.83;;;15.60;62.90;;;;;;10459019;28;20048;-57
2023/03/15 19:19:57;;;;;;;8.90;2.42;;;15.90;62.40;;;;;;10437768;28;20067;-58
2023/03/15 19:24:58;;;;;;;6.78;2.95;;;16.10;61.60;;;;;;10445345;28;20050;-58
2023/03/15 19:29:59;;;;;;;5.07;1.90;;;16.10;61.80;;;;;;10445845;28;20021;-58
2023/03/15 19:34:59;;;;;;;7.80;2.60;;;16.00;61.80;;;;;;10445514;28;20104;-58
2023/03/15 19:40:00;;;;;;;5.78;2.45;;;16.00;62.10;;;;;;10444835;28;20128;-55
2023/03/15 19:45:02;;;;;;;7.25;3.10;;;15.90;62.50;;;;;;10445496;28;20021;-56
2023/03/15 19:50:04;;;;;;;7.22;2.60;;;15.80;62.30;;;;;;10443340;28;20029;-55
2023/03/15 19:55:07;;;;;;;6.57;2.40;;;15.80;62.90;;;;;;10443439;28;20618;-56
2023/03/15 20:00:14;;;;;;;5.60;2.28;;;15.70;62.80;;;;;;10426426;28;20048;-57
2023/03/15 20:05:18;;;;;;;3.72;1.80;;;15.70;63.30;;;;;;10457791;28;20368;-57
2023/03/15 20:10:19;;;;;;;4.25;2.30;;;15.60;63.30;;;;;;10423123;28;20734;-57
2023/03/15 20:15:20;;;;;;;7.00;2.20;;;15.60;63.50;;;;;;10439093;28;20025;-56
2023/03/15 20:20:21;;;;;;;4.55;1.75;;;15.50;63.40;;;;;;10445592;28;20029;-56
2023/03/15 20:25:21;;;;;;;3.97;2.15;;;15.40;63.40;;;;;;10427717;28;20107;-57
2023/03/15 20:30:22;;;;;;;4.60;1.92;;;15.40;63.30;;;;;;10441022;28;20054;-57
2023/03/15 20:35:23;;;;;;;4.22;1.88;;;15.40;63.30;;;;;;10443800;28;20040;-57
2023/03/15 20:40:23;;;;;;;4.60;1.90;;;15.30;63.30;;;;;;10443918;28;20051;-56
2023/03/15 20:45:24;;;;;;;7.07;2.17;;;15.30;63.30;;;;;;10442277;28;20416;-57
2023/03/15 20:50:25;;;;;;;3.38;1.77;;;15.30;63.30;;;;;;10442428;28;20092;-56
2023/03/15 20:55:25;;;;;;;7.03;2.33;;;15.30;63.30;;;;;;10439221;28;20029;-54
2023/03/15 21:00:26;;;;;;;4.65;2.40;;;15.20;63.20;;;;;;10444009;28;20029;-57
2023/03/15 21:05:27;;;;;;;3.10;1.60;;;15.20;63.40;;;;;;10437982;28;20013;-57
2023/03/15 21:10:28;;;;;;;4.03;1.85;;;15.20;63.20;;;;;;10437384;28;20509;-56
2023/03/15 21:15:29;;;;;;;3.75;1.80;;;15.20;63.30;;;;;;10455201;28;20104;-57
2023/03/15 21:20:30;;;;;;;4.93;2.10;;;15.20;63.30;;;;;;10444034;28;20116;-57
2023/03/15 21:25:31;;;;;;;2.90;1.88;;;15.20;63.20;;;;;;10445720;28;20198;-57
2023/03/15 21:30:32;;;;;;;3.53;1.73;;;15.10;63.20;;;;;;10442758;28;20025;-56
2023/03/15 21:35:33;;;;;;;4.13;1.50;;;15.10;63.10;;;;;;10443601;28;20098;-56
2023/03/15 21:40:33;;;;;;;3.35;1.60;;;15.10;63.10;;;;;;10430296;28;20033;-56
2023/03/15 21:45:34;;;;;;;5.90;1.98;;;15.10;63.10;;;;;;10444815;28;20101;-56
2023/03/15 21:50:35;;;;;;;3.35;1.50;;;15.10;63.20;;;;;;10462403;28;20048;-56
2023/03/15 21:55:36;;;;;;;2.70;1.42;;;15.00;63.10;;;;;;10428130;28;20025;-55
2023/03/15 22:00:37;;;;;;;3.80;2.30;;;15.00;63.00;;;;;;10445300;28;20060;-58
2023/03/15 22:05:37;;;;;;;3.70;2.17;;;15.00;63.10;;;;;;10444204;28;20092;-56
2023/03/15 22:10:38;;;;;;;3.80;1.50;;;15.00;63.10;;;;;;10416432;28;20144;-57
2023/03/15 22:15:39;;;;;;;2.60;1.60;;;15.00;63.00;;;;;;10442659;28;20044;-57
2023/03/15 22:20:40;;;;;;;2.95;1.52;;;15.00;63.20;;;;;;10443441;28;20439;-56
2023/03/15 22:25:40;;;;;;;4.18;1.48;;;15.00;63.00;;;;;;10444044;28;20115;-57
2023/03/15 22:30:42;;;;;;;5.05;1.75;;;14.90;62.90;;;;;;10443878;28;20104;-57
2023/03/15 22:35:43;;;;;;;2.45;1.30;;;14.90;62.90;;;;;;10444933;28;20013;-57
2023/03/15 22:40:43;;;;;;;2.88;1.80;;;14.90;62.90;;;;;;10443751;28;20025;-57
2023/03/15 22:45:44;;;;;;;1.60;1.08;;;14.90;62.90;;;;;;10426564;28;20536;-56
2023/03/15 22:50:44;;;;;;;2.03;1.15;;;14.90;62.90;;;;;;10444772;28;20017;-57
2023/03/15 22:55:46;;;;;;;2.10;1.10;;;14.90;62.90;;;;;;10442612;28;20047;-56
2023/03/15 23:00:47;;;;;;;3.15;1.52;;;14.90;62.80;;;;;;10443468;28;20082;-56
2023/03/15 23:05:48;;;;;;;3.80;1.52;;;14.80;62.70;;;;;;10443696;28;20233;-56
2023/03/15 23:10:49;;;;;;;2.78;1.50;;;14.80;62.70;;;;;;10443292;28;20735;-57
2023/03/15 23:15:50;;;;;;;3.53;1.40;;;14.80;62.70;;;;;;10458076;28;20025;-56
2023/03/15 23:20:50;;;;;;;2.53;1.55;;;14.80;62.80;;;;;;10441929;28;20036;-55
2023/03/15 23:25:52;;;;;;;2.05;1.13;;;14.80;62.60;;;;;;10443078;28;20104;-56
2023/03/15 23:30:53;;;;;;;1.42;0.90;;;14.80;62.70;;;;;;10432224;28;20028;-56
2023/03/15 23:35:55;;;;;;;1.75;1.35;;;14.80;62.60;;;;;;10441503;28;20036;-55
2023/03/15 23:41:00;;;;;;;2.63;1.17;;;14.80;62.60;;;;;;10442812;28;20384;-56
2023/03/15 23:46:03;;;;;;;4.35;1.17;;;14.80;62.60;;;;;;10443756;28;20019;-56
2023/03/15 23:51:04;;;;;;;2.67;1.20;;;14.80;62.60;;;;;;10441748;28;20017;-56
2023/03/15 23:56:05;;;;;;;2.38;1.35;;;14.70;63.10;;;;;;10440905;28;20251;-55
